createdAt,value
2019-01-11T00:04:49.014Z,2.40
2019-01-11T00:07:58.499Z,2.40
2019-01-11T00:11:00.383Z,2.40
2019-01-11T00:14:02.612Z,2.50
2019-01-11T00:17:12.099Z,2.50
2019-01-11T00:20:14.042Z,2.50
2019-01-11T00:23:14.483Z,2.50
2019-01-11T00:26:23.882Z,2.50
2019-01-11T00:29:24.264Z,2.50
2019-01-11T00:32:33.677Z,2.50
2019-01-11T00:35:35.896Z,2.50
2019-01-11T00:38:45.303Z,2.60
2019-01-11T00:41:47.514Z,2.60
2019-01-11T00:47:58.890Z,2.60
2019-01-11T00:51:01.031Z,2.70
2019-01-11T00:54:10.430Z,2.70
2019-01-11T00:57:12.925Z,2.70
2019-01-11T01:00:24.111Z,2.70
2019-01-11T01:03:26.967Z,2.70
2019-01-11T01:06:36.474Z,2.70
2019-01-11T01:09:39.088Z,2.70
2019-01-11T01:12:41.427Z,2.80
2019-01-11T01:15:50.834Z,2.80
2019-01-11T01:18:51.273Z,2.80
2019-01-11T01:22:00.766Z,2.80
2019-01-11T01:25:01.191Z,2.80
2019-01-11T01:28:03.595Z,2.80
2019-01-11T01:31:12.998Z,2.80
2019-01-11T01:34:15.050Z,2.90
2019-01-11T01:37:24.558Z,2.80
2019-01-11T01:40:26.458Z,2.90
2019-01-11T01:43:35.975Z,2.90
2019-01-11T01:46:38.637Z,2.90
2019-01-11T01:49:28.785Z,2.90
2019-01-11T01:52:38.186Z,2.90
2019-01-11T01:55:40.138Z,2.90
2019-01-11T01:58:49.667Z,3.00
2019-01-11T02:01:51.839Z,3.00
2019-01-11T02:04:54.526Z,3.00
2019-01-11T02:11:27.034Z,3.00
2019-01-11T02:14:36.533Z,3.10
2019-01-11T02:17:26.601Z,3.10
2019-01-11T02:20:37.656Z,3.20
2019-01-11T02:23:39.570Z,3.10
2019-01-11T02:26:39.999Z,3.20
2019-01-11T02:29:49.401Z,3.20
2019-01-11T02:32:52.932Z,3.20
2019-01-11T02:36:02.797Z,3.30
2019-01-11T02:39:05.956Z,3.30
2019-01-11T02:42:07.867Z,3.30
2019-01-11T02:49:05.571Z,3.30
2019-01-11T02:52:08.146Z,3.30
2019-01-11T02:55:17.551Z,3.30
2019-01-11T02:58:20.148Z,3.40
2019-01-11T03:01:29.546Z,3.40
2019-01-11T03:04:32.089Z,3.40
2019-01-11T03:07:41.484Z,3.40
2019-01-11T03:10:43.977Z,3.40
2019-01-11T03:17:04.929Z,3.40
2019-01-11T03:20:35.332Z,3.50
2019-01-11T03:23:37.669Z,3.50
2019-01-11T03:26:40.401Z,3.50
2019-01-11T03:29:49.795Z,3.40
2019-01-11T03:32:52.400Z,3.40
2019-01-11T03:36:01.892Z,3.50
2019-01-11T03:39:02.291Z,3.50
2019-01-11T03:42:05.794Z,3.50
2019-01-11T03:45:36.096Z,3.50
2019-01-11T03:48:38.084Z,3.50
2019-01-11T03:51:47.588Z,3.50
2019-01-11T03:54:49.652Z,3.50
2019-01-11T03:57:50.147Z,3.50
2019-01-11T04:00:59.546Z,3.50
2019-01-11T04:04:02.217Z,3.60
2019-01-11T04:07:11.623Z,3.50
2019-01-11T04:10:18.182Z,3.60
2019-01-11T04:16:33.987Z,3.60
2019-01-11T04:19:43.484Z,3.60
2019-01-11T04:22:45.559Z,3.70
2019-01-11T04:25:54.971Z,3.70
2019-01-11T04:28:56.855Z,3.70
2019-01-11T04:32:06.253Z,3.70
2019-01-11T04:35:08.510Z,3.70
2019-01-11T04:38:17.989Z,3.80
2019-01-11T04:41:19.921Z,3.80
2019-01-11T04:44:22.530Z,3.80
2019-01-11T04:47:31.935Z,3.80
2019-01-11T04:50:32.342Z,3.80
2019-01-11T04:53:41.742Z,3.90
2019-01-11T04:56:42.291Z,3.90
2019-01-11T04:59:51.693Z,3.90
2019-01-11T05:02:53.669Z,4.00
2019-01-11T05:09:11.070Z,4.10
2019-01-11T05:12:20.567Z,4.10
2019-01-11T05:15:22.776Z,4.20
2019-01-11T05:18:32.271Z,4.20
2019-01-11T05:21:34.497Z,4.20
2019-01-11T05:24:34.962Z,4.30
2019-01-11T05:27:44.377Z,4.30
2019-01-11T05:30:46.746Z,4.40
2019-01-11T05:37:10.452Z,4.60
2019-01-11T05:40:13.854Z,4.60
2019-01-11T05:43:23.259Z,4.70
2019-01-11T05:46:25.197Z,4.70
2019-01-11T05:49:34.605Z,4.80
2019-01-11T05:52:34.978Z,4.80
2019-01-11T05:56:03.524Z,4.90
2019-01-11T05:59:04.689Z,4.90
2019-01-11T06:02:07.033Z,5.00
2019-01-11T06:05:16.437Z,5.00
2019-01-11T06:08:20.153Z,5.10
2019-01-11T06:11:29.653Z,5.10
2019-01-11T06:14:32.963Z,5.20
2019-01-11T06:17:35.573Z,5.20
2019-01-11T06:20:44.983Z,5.30
2019-01-11T06:23:47.097Z,5.30
2019-01-11T06:26:56.502Z,5.30
2019-01-11T06:29:59.170Z,5.30
2019-01-11T06:36:04.481Z,5.40
2019-01-11T06:39:13.984Z,5.40
2019-01-11T06:42:17.534Z,5.40
2019-01-11T06:45:20.078Z,5.40
2019-01-11T06:51:39.036Z,5.50
2019-01-11T06:54:48.531Z,5.50
2019-01-11T06:57:50.871Z,5.60
2019-01-11T07:00:53.119Z,5.70
2019-01-11T07:07:10.113Z,5.80
2019-01-11T07:13:48.260Z,6.10
2019-01-11T07:20:06.752Z,6.20
2019-01-11T07:23:16.158Z,6.20
2019-01-11T07:26:18.203Z,6.20
2019-01-11T07:29:27.604Z,6.20
2019-01-11T07:32:29.510Z,6.20
2019-01-11T07:38:32.009Z,6.20
2019-01-11T07:41:41.516Z,6.20
2019-01-11T07:44:44.221Z,6.20
2019-01-11T07:47:46.461Z,6.20
2019-01-11T07:50:55.891Z,6.30
2019-01-11T07:53:58.450Z,6.30
2019-01-11T07:57:00.677Z,6.40
2019-01-11T08:00:03.773Z,6.40
2019-01-11T08:03:06.366Z,6.40
2019-01-11T08:06:15.769Z,6.40
2019-01-11T08:09:17.676Z,6.50
2019-01-11T08:12:27.080Z,6.50
2019-01-11T08:15:29.683Z,6.50
2019-01-11T08:21:47.287Z,6.60
2019-01-11T08:27:50.071Z,6.70
2019-01-11T08:30:59.586Z,6.70
2019-01-11T08:34:01.798Z,6.80
2019-01-11T08:37:05.248Z,6.80
2019-01-11T08:40:14.827Z,6.90
2019-01-11T08:43:17.085Z,6.90
2019-01-11T08:46:19.097Z,7.00
2019-01-11T08:49:28.500Z,7.00
2019-01-11T08:52:30.693Z,7.10
2019-01-11T08:58:47.182Z,7.20
2019-01-11T09:05:04.892Z,7.30
2019-01-11T09:11:21.655Z,7.30
2019-01-11T09:17:22.039Z,7.30
2019-01-11T09:20:31.539Z,7.30
2019-01-11T09:23:33.413Z,7.30
2019-01-11T09:26:42.819Z,7.30
2019-01-11T09:29:46.228Z,7.40
2019-01-11T09:32:55.623Z,7.40
2019-01-11T09:36:04.851Z,7.50
2019-01-11T09:39:07.796Z,7.60
2019-01-11T09:42:17.190Z,7.60
2019-01-11T09:45:19.115Z,7.70
2019-01-11T09:48:28.514Z,7.70
2019-01-11T09:51:30.615Z,7.60
2019-01-11T09:54:40.011Z,7.60
2019-01-11T09:57:43.916Z,7.60
2019-01-11T10:00:33.966Z,7.60
2019-01-11T10:03:49.520Z,7.60
2019-01-11T10:06:54.290Z,7.60
2019-01-11T10:13:32.576Z,7.60
2019-01-11T10:16:34.713Z,7.60
2019-01-11T10:19:44.124Z,7.60
2019-01-11T10:22:46.268Z,7.70
2019-01-11T10:25:55.659Z,7.70
2019-01-11T10:28:57.723Z,7.70
2019-01-11T10:35:14.635Z,7.90
2019-01-11T10:41:32.717Z,8.10
2019-01-11T10:44:42.118Z,8.20
2019-01-11T10:47:44.759Z,8.10
2019-01-11T10:50:54.157Z,8.10
2019-01-11T10:53:56.711Z,8.10
2019-01-11T10:57:06.249Z,8.10
2019-01-11T11:00:12.871Z,8.10
2019-01-11T11:03:22.371Z,8.00
2019-01-11T11:06:24.786Z,8.00
2019-01-11T11:09:26.780Z,7.90
2019-01-11T11:12:36.171Z,7.90
2019-01-11T11:15:39.810Z,7.90
2019-01-11T11:18:49.302Z,8.00
2019-01-11T11:21:51.108Z,8.00
2019-01-11T11:24:53.025Z,8.10
2019-01-11T11:28:02.420Z,8.10
2019-01-11T11:31:03.585Z,8.10
2019-01-11T11:34:12.970Z,8.20
2019-01-11T11:37:17.850Z,8.20
2019-01-11T11:43:35.750Z,8.20
2019-01-11T11:46:45.241Z,8.30
2019-01-11T11:49:47.695Z,8.20
2019-01-11T11:52:57.186Z,8.10
2019-01-11T11:55:59.898Z,8.20
2019-01-11T11:59:01.935Z,8.10
2019-01-11T12:02:04.087Z,8.10
2019-01-11T12:05:13.853Z,8.00
2019-01-11T12:08:16.522Z,8.00
2019-01-11T12:11:25.912Z,7.90
2019-01-11T12:14:28.118Z,7.90
2019-01-11T12:17:37.517Z,7.90
2019-01-11T12:20:39.711Z,7.80
2019-01-11T12:26:56.468Z,7.90
2019-01-11T12:30:26.869Z,8.00
2019-01-11T12:33:29.544Z,8.00
2019-01-11T12:36:32.300Z,8.00
2019-01-11T12:39:41.705Z,8.10
2019-01-11T12:42:43.714Z,8.10
2019-01-11T12:45:53.218Z,8.10
2019-01-11T12:48:55.439Z,8.20
2019-01-11T12:51:57.706Z,8.30
2019-01-11T12:55:07.273Z,8.40
2019-01-11T12:58:11.796Z,8.30
2019-01-11T13:01:21.295Z,8.20
2019-01-11T13:04:23.636Z,8.10
2019-01-11T13:07:25.552Z,8.10
2019-01-11T13:10:34.935Z,8.10
2019-01-11T13:13:36.931Z,8.00
2019-01-11T13:16:46.323Z,8.00
2019-01-11T13:19:48.969Z,8.00
2019-01-11T13:22:39.024Z,8.00
2019-01-11T13:25:48.557Z,8.00
2019-01-11T13:28:50.641Z,8.00
2019-01-11T13:31:40.696Z,8.00
2019-01-11T13:34:30.906Z,8.00
2019-01-11T13:37:40.301Z,8.10
2019-01-11T13:40:42.286Z,8.10
2019-01-11T13:43:51.757Z,8.10
2019-01-11T13:46:52.007Z,8.10
2019-01-11T13:49:54.838Z,8.10
2019-01-11T13:56:33.155Z,8.10
2019-01-11T13:59:41.390Z,8.00
2019-01-11T14:02:39.677Z,8.00
2019-01-11T14:05:29.739Z,8.00
2019-01-11T14:08:32.498Z,7.90
2019-01-11T14:11:41.999Z,7.90
2019-01-11T14:14:42.314Z,7.90
2019-01-11T14:17:44.443Z,7.80
2019-01-11T14:20:53.843Z,7.80
2019-01-11T14:23:55.771Z,7.80
2019-01-11T14:27:05.168Z,7.80
2019-01-11T14:30:08.972Z,7.70
2019-01-11T14:33:18.364Z,7.70
2019-01-11T14:36:20.730Z,7.70
2019-01-11T14:39:30.218Z,7.60
2019-01-11T14:42:32.587Z,7.60
2019-01-11T14:45:34.552Z,7.60
2019-01-11T14:48:43.950Z,7.60
2019-01-11T14:51:46.303Z,7.50
2019-01-11T14:54:55.715Z,7.50
2019-01-11T14:57:56.208Z,7.50
2019-01-11T15:01:05.731Z,7.60
2019-01-11T15:04:08.672Z,7.60
2019-01-11T15:07:09.042Z,7.50
2019-01-11T15:10:18.439Z,7.50
2019-01-11T15:13:20.646Z,7.50
2019-01-11T15:16:30.043Z,7.50
2019-01-11T15:19:32.280Z,7.50
2019-01-11T15:22:41.678Z,7.40
2019-01-11T15:25:31.833Z,7.30
2019-01-11T15:28:41.361Z,7.30
2019-01-11T15:31:41.606Z,7.30
2019-01-11T15:34:43.564Z,7.30
2019-01-11T15:37:52.960Z,7.30
2019-01-11T15:40:55.173Z,7.30
2019-01-11T15:44:04.597Z,7.30
2019-01-11T15:47:06.905Z,7.30
2019-01-11T15:50:37.200Z,7.20
2019-01-11T15:53:39.390Z,7.20
2019-01-11T15:59:59.917Z,7.20
2019-01-11T16:03:09.491Z,7.20
2019-01-11T16:06:30.983Z,7.20
2019-01-11T16:10:01.291Z,7.20
2019-01-11T16:13:05.214Z,7.20
2019-01-11T16:16:35.522Z,7.20
2019-01-11T16:19:37.986Z,7.10
2019-01-11T16:22:47.519Z,7.20
2019-01-11T16:25:47.834Z,7.20
2019-01-11T16:28:49.809Z,7.10
2019-01-11T16:31:59.559Z,7.10
2019-01-11T16:35:03.289Z,7.10
2019-01-11T16:38:05.170Z,7.10
2019-01-11T16:41:14.591Z,7.10
2019-01-11T16:44:17.006Z,7.10
2019-01-11T16:47:26.481Z,7.10
2019-01-11T16:53:30.599Z,7.10
2019-01-11T16:56:40.000Z,7.10
2019-01-11T16:59:30.152Z,7.10
2019-01-11T17:02:39.631Z,7.10
2019-01-11T17:05:41.647Z,7.00
2019-01-11T17:08:44.273Z,7.00
2019-01-11T17:11:53.666Z,7.00
2019-01-11T17:14:55.591Z,7.00
2019-01-11T17:21:12.547Z,7.00
2019-01-11T17:27:29.633Z,7.00
2019-01-11T17:30:39.030Z,6.90
2019-01-11T17:33:39.387Z,7.00
2019-01-11T17:36:48.796Z,7.00
2019-01-11T17:39:51.220Z,7.00
2019-01-11T17:46:08.259Z,6.90
2019-01-11T17:49:17.743Z,6.90
2019-01-11T17:52:18.020Z,6.90
2019-01-11T17:58:35.517Z,6.90
2019-01-11T18:01:44.904Z,6.90
2019-01-11T18:04:47.563Z,6.90
2019-01-11T18:07:56.954Z,6.90
2019-01-11T18:10:59.627Z,6.90
2019-01-11T18:14:09.134Z,6.90
2019-01-11T18:17:11.099Z,6.90
2019-01-11T18:20:14.692Z,6.90
2019-01-11T18:26:31.684Z,6.90
2019-01-11T18:29:41.229Z,6.90
2019-01-11T18:32:43.798Z,6.90
2019-01-11T18:35:45.832Z,6.90
2019-01-11T18:38:55.312Z,6.80
2019-01-11T18:41:57.634Z,6.80
2019-01-11T18:44:59.756Z,6.80
2019-01-11T18:48:09.159Z,6.70
2019-01-11T18:51:11.152Z,6.60
2019-01-11T18:57:28.968Z,6.50
2019-01-11T19:00:30.967Z,6.50
2019-01-11T19:03:33.532Z,6.40
2019-01-11T19:06:43.034Z,6.40
2019-01-11T19:09:45.312Z,6.40
2019-01-11T19:12:54.713Z,6.40
2019-01-11T19:15:56.703Z,6.40
2019-01-11T19:22:13.921Z,6.50
2019-01-11T19:25:23.496Z,6.50
2019-01-11T19:28:25.566Z,6.50
2019-01-11T19:31:27.650Z,6.50
2019-01-11T19:37:44.871Z,6.50
2019-01-11T19:40:54.392Z,6.50
2019-01-11T19:43:56.609Z,6.50
2019-01-11T19:46:58.903Z,6.50
2019-01-11T19:50:27.744Z,6.40
2019-01-11T19:53:29.602Z,6.40
2019-01-11T19:56:31.811Z,6.40
2019-01-11T19:59:34.204Z,6.30
2019-01-11T20:05:51.268Z,6.20
2019-01-11T20:09:00.696Z,6.20
2019-01-11T20:12:02.815Z,6.20
2019-01-11T20:18:20.914Z,6.10
2019-01-11T20:21:30.442Z,6.10
2019-01-11T20:24:32.890Z,6.10
2019-01-11T20:27:35.687Z,6.00
2019-01-11T20:30:45.200Z,6.00
2019-01-11T20:33:45.497Z,6.00
2019-01-11T20:36:49.519Z,5.90
2019-01-11T20:39:58.947Z,5.90
2019-01-11T20:43:01.439Z,5.90
2019-01-11T20:46:10.916Z,5.80
2019-01-11T20:49:13.599Z,5.80
2019-01-11T20:52:15.730Z,5.80
2019-01-11T20:55:46.183Z,5.70
2019-01-11T20:58:47.980Z,5.70
2019-01-11T21:01:38.139Z,5.70
2019-01-11T21:04:47.546Z,5.70
2019-01-11T21:07:37.702Z,5.60
2019-01-11T21:10:47.094Z,5.60
2019-01-11T21:13:49.248Z,5.60
2019-01-11T21:16:58.761Z,5.50
2019-01-11T21:20:01.216Z,5.50
2019-01-11T21:23:03.401Z,5.50
2019-01-11T21:29:20.454Z,5.50
2019-01-11T21:32:29.939Z,5.60
2019-01-11T21:35:32.103Z,5.60
2019-01-11T21:38:34.106Z,5.60
2019-01-11T21:41:43.615Z,5.70
2019-01-11T21:44:43.945Z,5.70
2019-01-11T21:47:46.223Z,5.80
2019-01-11T21:50:55.622Z,5.80
2019-01-11T21:53:58.118Z,5.80
2019-01-11T22:00:22.656Z,5.90
2019-01-11T22:06:40.147Z,5.80
2019-01-11T22:09:30.296Z,5.90
2019-01-11T22:12:32.593Z,5.90
2019-01-11T22:15:41.998Z,5.90
2019-01-11T22:25:02.527Z,5.90
2019-01-11T22:28:04.987Z,5.90
2019-01-11T22:31:14.379Z,5.90
2019-01-11T22:34:16.421Z,5.90
2019-01-11T22:37:25.906Z,5.90
2019-01-11T22:40:27.875Z,5.90
2019-01-11T22:43:30.123Z,5.90
2019-01-11T22:46:39.520Z,5.90
2019-01-11T22:49:41.879Z,5.80
2019-01-11T22:55:58.600Z,5.90
2019-01-11T22:58:59.183Z,6.10
2019-01-11T23:02:02.610Z,6.00
2019-01-11T23:05:06.347Z,6.10
2019-01-11T23:08:36.744Z,6.10
2019-01-11T23:11:43.048Z,6.20
2019-01-11T23:14:45.301Z,6.20
2019-01-11T23:17:54.757Z,6.20
2019-01-11T23:20:56.951Z,6.30
2019-01-11T23:24:06.419Z,6.30
2019-01-11T23:27:08.718Z,6.30
2019-01-11T23:33:26.602Z,6.30
2019-01-11T23:39:43.785Z,6.40
2019-01-11T23:46:00.880Z,6.40
2019-01-11T23:52:18.047Z,6.30
2019-01-11T23:55:27.452Z,6.40
2019-01-11T23:58:27.821Z,6.40
